createdAt,value
2023-04-23T00:02:26.864Z,90.47
2023-04-23T00:04:54.761Z,93.32
2023-04-23T00:07:22.223Z,94.80
2023-04-23T00:09:52.867Z,89.43
2023-04-23T00:12:20.767Z,82.65
2023-04-23T00:14:48.552Z,73.22
2023-04-23T00:17:15.689Z,80.28
2023-04-23T00:19:42.986Z,75.53
2023-04-23T00:22:10.480Z,74.38
2023-04-23T00:24:39.283Z,71.07
2023-04-23T00:27:06.556Z,74.80
2023-04-23T00:29:34.179Z,72.90
2023-04-23T00:32:03.136Z,68.93
2023-04-23T00:34:30.961Z,60.58
2023-04-23T00:36:57.922Z,56.38
2023-04-23T00:39:25.031Z,58.53
2023-04-23T00:41:52.173Z,59.25
2023-04-23T00:44:20.750Z,56.50
2023-04-23T00:46:48.175Z,52.13
2023-04-23T00:49:15.564Z,52.70
2023-04-23T00:51:42.903Z,53.83
2023-04-23T00:54:10.275Z,58.55
2023-04-23T00:56:37.446Z,50.05
2023-04-23T00:59:04.754Z,52.47
2023-04-23T01:01:33.086Z,53.75
2023-04-23T01:04:00.852Z,52.13
2023-04-23T01:06:28.617Z,60.83
2023-04-23T01:08:56.035Z,57.10
2023-04-23T01:11:23.610Z,51.17
2023-04-23T01:13:50.654Z,58.78
2023-04-23T01:16:19.223Z,48.00
2023-04-23T01:18:46.744Z,56.05
2023-04-23T01:21:14.737Z,50.78
2023-04-23T01:23:41.900Z,40.55
2023-04-23T01:26:10.585Z,51.67
2023-04-23T01:28:37.587Z,44.60
2023-04-23T01:31:05.237Z,46.10
2023-04-23T01:33:32.556Z,45.15
2023-04-23T01:35:59.691Z,41.95
2023-04-23T01:38:27.216Z,41.25
2023-04-23T01:40:54.419Z,43.03
2023-04-23T01:43:22.697Z,38.33
2023-04-23T01:45:50.064Z,45.17
2023-04-23T01:48:17.751Z,34.58
2023-04-23T01:50:45.108Z,39.83
2023-04-23T01:53:12.655Z,36.78
2023-04-23T01:55:40.115Z,38.65
2023-04-23T01:58:07.804Z,39.47
2023-04-23T02:00:34.968Z,32.33
2023-04-23T02:03:02.816Z,34.53
2023-04-23T02:05:30.221Z,33.90
2023-04-23T02:07:57.946Z,37.58
2023-04-23T02:10:25.746Z,40.42
2023-04-23T02:12:53.185Z,38.65
2023-04-23T02:15:21.525Z,35.60
2023-04-23T02:17:51.800Z,35.22
2023-04-23T02:20:19.258Z,35.58
2023-04-23T02:22:46.891Z,38.50
2023-04-23T02:25:18.001Z,33.38
2023-04-23T02:27:45.565Z,38.15
2023-04-23T02:30:13.361Z,36.97
2023-04-23T02:32:41.470Z,35.03
2023-04-23T02:35:10.419Z,31.85
2023-04-23T02:37:37.544Z,46.10
2023-04-23T02:40:06.290Z,42.05
2023-04-23T02:42:33.898Z,27.67
2023-04-23T02:45:01.092Z,34.58
2023-04-23T02:47:31.272Z,37.58
2023-04-23T02:49:58.917Z,35.28
2023-04-23T02:52:26.606Z,26.23
2023-04-23T02:54:54.146Z,23.85
2023-04-23T02:57:21.943Z,28.58
2023-04-23T02:59:50.023Z,27.83
2023-04-23T03:02:20.720Z,28.38
2023-04-23T03:04:48.319Z,23.88
2023-04-23T03:07:17.296Z,27.00
2023-04-23T03:09:44.447Z,33.17
2023-04-23T03:12:11.943Z,22.55
2023-04-23T03:14:39.717Z,22.08
2023-04-23T03:17:07.180Z,26.52
2023-04-23T03:19:35.337Z,21.92
2023-04-23T03:22:05.667Z,18.25
2023-04-23T03:24:33.606Z,23.02
2023-04-23T03:27:00.969Z,18.08
2023-04-23T03:29:28.428Z,18.98
2023-04-23T03:31:56.656Z,15.95
2023-04-23T03:34:23.859Z,21.65
2023-04-23T03:36:51.280Z,18.60
2023-04-23T03:39:19.076Z,17.98
2023-04-23T03:41:52.620Z,20.02
2023-04-23T03:44:25.135Z,16.75
2023-04-23T03:46:52.665Z,14.10
2023-04-23T03:49:21.052Z,12.90
2023-04-23T03:51:48.208Z,13.30
2023-04-23T03:54:16.128Z,13.75
2023-04-23T03:57:03.395Z,13.85
2023-04-23T03:59:35.731Z,12.23
2023-04-23T04:02:06.074Z,15.18
2023-04-23T04:04:33.969Z,13.48
2023-04-23T04:07:01.151Z,11.80
2023-04-23T04:09:28.913Z,16.65
2023-04-23T04:12:01.355Z,13.50
2023-04-23T04:14:29.038Z,15.35
2023-04-23T04:16:56.695Z,14.70
2023-04-23T04:19:23.840Z,14.40
2023-04-23T04:21:53.531Z,10.93
2023-04-23T04:24:22.533Z,14.98
2023-04-23T04:26:52.387Z,16.83
2023-04-23T04:29:21.431Z,16.63
2023-04-23T04:31:48.558Z,11.88
2023-04-23T04:34:18.008Z,17.55
2023-04-23T04:36:45.746Z,16.83
2023-04-23T04:39:14.585Z,16.88
2023-04-23T04:41:42.900Z,35.45
2023-04-23T04:44:10.338Z,15.90
2023-04-23T04:46:40.265Z,11.13
2023-04-23T04:49:08.856Z,22.27
2023-04-23T04:51:36.999Z,21.95
2023-04-23T04:54:04.582Z,9.20
2023-04-23T04:56:32.042Z,12.77
2023-04-23T04:58:59.644Z,7.90
2023-04-23T05:01:28.490Z,8.35
2023-04-23T05:03:56.162Z,8.93
2023-04-23T05:06:23.516Z,7.90
2023-04-23T05:08:51.491Z,16.08
2023-04-23T05:11:19.619Z,16.15
2023-04-23T05:13:47.523Z,10.85
2023-04-23T05:16:14.633Z,9.57
2023-04-23T05:18:42.374Z,9.70
2023-04-23T05:21:09.516Z,11.43
2023-04-23T05:23:37.258Z,10.77
2023-04-23T05:26:04.630Z,14.10
2023-04-23T05:28:31.989Z,10.75
2023-04-23T05:30:59.174Z,9.82
2023-04-23T05:33:30.646Z,14.57
2023-04-23T05:36:00.651Z,11.63
2023-04-23T05:38:27.998Z,10.18
2023-04-23T05:40:55.011Z,9.38
2023-04-23T05:43:22.100Z,10.75
2023-04-23T05:45:49.452Z,13.25
2023-04-23T05:48:16.800Z,9.93
2023-04-23T05:50:44.240Z,10.68
2023-04-23T05:53:11.320Z,8.95
2023-04-23T05:55:38.468Z,12.85
2023-04-23T05:58:06.015Z,13.15
2023-04-23T06:00:35.193Z,10.90
2023-04-23T06:03:02.234Z,8.23
2023-04-23T06:05:29.986Z,9.20
2023-04-23T06:07:57.514Z,11.07
2023-04-23T06:10:24.775Z,13.25
2023-04-23T06:12:53.769Z,11.05
2023-04-23T06:15:21.226Z,10.40
2023-04-23T06:17:48.272Z,9.10
2023-04-23T06:20:15.544Z,10.18
2023-04-23T06:22:42.580Z,14.43
2023-04-23T06:25:10.158Z,17.33
2023-04-23T06:27:37.023Z,10.68
2023-04-23T06:30:11.732Z,11.10
2023-04-23T06:32:39.260Z,14.88
2023-04-23T06:35:07.307Z,14.00
2023-04-23T06:37:35.609Z,9.23
2023-04-23T06:40:03.081Z,13.77
2023-04-23T06:42:30.752Z,11.75
2023-04-23T06:45:18.238Z,15.52
2023-04-23T06:47:45.799Z,15.18
2023-04-23T06:50:13.477Z,15.07
2023-04-23T06:52:40.940Z,14.13
2023-04-23T06:55:08.747Z,9.10
2023-04-23T06:57:36.423Z,19.58
2023-04-23T07:00:06.852Z,11.10
2023-04-23T07:02:38.347Z,9.30
2023-04-23T07:05:05.696Z,6.90
2023-04-23T07:07:33.891Z,12.00
2023-04-23T07:10:00.988Z,14.23
2023-04-23T07:12:28.215Z,11.30
2023-04-23T07:14:56.029Z,14.15
2023-04-23T07:17:23.103Z,10.20
2023-04-23T07:19:50.348Z,12.15
2023-04-23T07:22:17.813Z,12.70
2023-04-23T07:24:45.231Z,14.05
2023-04-23T07:27:12.897Z,18.48
2023-04-23T07:29:40.314Z,9.18
2023-04-23T07:32:07.761Z,9.02
2023-04-23T07:34:38.102Z,11.32
2023-04-23T07:37:06.257Z,14.07
2023-04-23T07:39:33.469Z,12.38
2023-04-23T07:42:02.298Z,7.82
2023-04-23T07:44:29.814Z,14.27
2023-04-23T07:46:56.980Z,8.68
2023-04-23T07:49:24.689Z,10.25
2023-04-23T07:51:52.274Z,13.70
2023-04-23T07:54:19.924Z,10.48
2023-04-23T07:56:47.078Z,11.88
2023-04-23T07:59:14.399Z,13.00
2023-04-23T08:01:42.185Z,10.38
2023-04-23T08:04:09.887Z,9.23
2023-04-23T08:06:37.559Z,11.48
2023-04-23T08:09:06.609Z,20.42
2023-04-23T08:11:33.968Z,7.32
2023-04-23T08:14:03.827Z,9.40
2023-04-23T08:16:31.474Z,9.90
2023-04-23T08:19:05.530Z,13.73
2023-04-23T08:21:35.268Z,21.80
2023-04-23T08:24:05.161Z,9.45
2023-04-23T08:26:32.510Z,10.65
2023-04-23T08:29:02.921Z,18.98
2023-04-23T08:31:30.466Z,9.98
2023-04-23T08:33:57.916Z,10.13
2023-04-23T08:36:26.447Z,12.77
2023-04-23T08:38:53.829Z,12.73
2023-04-23T08:41:22.691Z,9.55
2023-04-23T08:44:19.241Z,11.98
2023-04-23T08:46:46.329Z,12.65
2023-04-23T08:49:17.061Z,9.50
2023-04-23T08:51:52.704Z,9.32
2023-04-23T08:54:29.362Z,12.10
2023-04-23T08:56:57.910Z,11.85
2023-04-23T08:59:30.516Z,9.65
2023-04-23T09:01:59.500Z,11.85
2023-04-23T09:04:26.930Z,17.92
2023-04-23T09:06:55.585Z,7.65
2023-04-23T09:09:23.866Z,7.95
2023-04-23T09:11:52.278Z,9.85
2023-04-23T09:14:24.871Z,10.15
2023-04-23T09:16:52.523Z,7.00
2023-04-23T09:19:19.667Z,7.53
2023-04-23T09:21:46.966Z,5.43
2023-04-23T09:24:17.569Z,11.55
2023-04-23T09:26:46.472Z,8.32
2023-04-23T09:29:18.309Z,33.30
2023-04-23T09:31:50.167Z,25.60
2023-04-23T09:34:17.981Z,11.20
2023-04-23T09:36:45.608Z,14.60
2023-04-23T09:39:17.887Z,9.05
2023-04-23T09:41:48.227Z,10.90
2023-04-23T09:44:19.304Z,9.85
2023-04-23T09:46:46.702Z,11.27
2023-04-23T09:49:15.231Z,10.27
2023-04-23T09:51:45.222Z,9.10
2023-04-23T09:54:23.155Z,11.25
2023-04-23T09:56:53.908Z,10.77
2023-04-23T09:59:47.039Z,13.02
2023-04-23T10:02:12.998Z,7.22
2023-04-23T10:04:40.563Z,11.68
2023-04-23T10:07:19.837Z,14.73
2023-04-23T10:09:47.943Z,19.50
2023-04-23T10:14:46.866Z,17.45
2023-04-23T10:17:13.932Z,15.38
2023-04-23T10:19:43.193Z,13.02
2023-04-23T10:22:19.381Z,7.22
2023-04-23T10:24:49.934Z,12.80
2023-04-23T10:27:30.716Z,16.70
2023-04-23T10:30:01.103Z,14.85
2023-04-23T10:32:29.629Z,9.63
2023-04-23T10:34:57.339Z,12.63
2023-04-23T10:37:24.483Z,8.68
2023-04-23T10:39:54.966Z,20.52
2023-04-23T10:42:22.790Z,12.55
2023-04-23T10:44:59.564Z,19.13
2023-04-23T10:47:30.734Z,19.20
2023-04-23T10:49:57.978Z,14.20
2023-04-23T10:52:26.163Z,10.35
2023-04-23T10:54:57.876Z,14.82
2023-04-23T10:57:25.508Z,18.15
2023-04-23T10:59:54.145Z,13.95
2023-04-23T11:02:23.277Z,15.13
2023-04-23T11:05:03.434Z,9.52
2023-04-23T11:07:32.367Z,11.00
2023-04-23T11:10:00.467Z,12.38
2023-04-23T11:12:27.337Z,10.95
2023-04-23T11:14:54.998Z,13.73
2023-04-23T11:17:43.063Z,21.63
2023-04-23T11:20:20.411Z,14.02
2023-04-23T11:22:48.658Z,10.13
2023-04-23T11:25:23.637Z,30.95
2023-04-23T11:27:51.779Z,9.82
2023-04-23T11:30:20.537Z,10.75
2023-04-23T11:32:52.597Z,10.88
2023-04-23T11:35:37.603Z,9.30
2023-04-23T11:38:08.621Z,11.27
2023-04-23T11:40:35.772Z,12.82
2023-04-23T11:43:04.080Z,7.72
2023-04-23T11:45:31.489Z,9.30
2023-04-23T11:48:00.503Z,8.95
2023-04-23T11:50:33.208Z,18.70
2023-04-23T11:53:09.883Z,22.58
2023-04-23T11:55:38.187Z,19.88
2023-04-23T11:58:05.870Z,15.20
2023-04-23T12:00:32.996Z,21.33
2023-04-23T12:03:01.694Z,20.33
2023-04-23T12:05:35.100Z,15.45
2023-04-23T12:08:12.513Z,22.50
2023-04-23T12:10:52.967Z,14.15
2023-04-23T12:13:33.428Z,23.25
2023-04-23T12:16:04.588Z,21.65
2023-04-23T12:18:38.637Z,36.88
2023-04-23T12:21:07.247Z,30.38
2023-04-23T12:23:36.179Z,23.30
2023-04-23T12:26:04.154Z,50.55
2023-04-23T12:28:31.254Z,47.80
2023-04-23T12:31:02.371Z,47.70
2023-04-23T12:33:30.305Z,24.35
2023-04-23T12:35:57.522Z,19.58
2023-04-23T12:38:26.612Z,17.40
2023-04-23T12:40:54.996Z,18.83
2023-04-23T12:43:22.024Z,36.53
2023-04-23T12:45:49.561Z,36.45
2023-04-23T12:48:16.991Z,32.22
2023-04-23T12:50:47.574Z,36.50
2023-04-23T12:53:15.382Z,43.42
2023-04-23T12:55:44.083Z,42.92
2023-04-23T12:58:11.403Z,44.10
2023-04-23T13:00:39.205Z,34.33
2023-04-23T13:03:06.538Z,30.20
2023-04-23T13:05:33.988Z,34.65
2023-04-23T13:08:01.330Z,37.45
2023-04-23T13:10:30.571Z,32.45
2023-04-23T13:12:57.931Z,39.10
2023-04-23T13:15:26.947Z,63.80
2023-04-23T13:17:54.561Z,59.10
2023-04-23T13:20:21.757Z,67.93
2023-04-23T13:22:49.156Z,99.03
2023-04-23T13:25:16.846Z,108.38
2023-04-23T13:27:43.972Z,110.05
2023-04-23T13:30:11.582Z,146.32
2023-04-23T13:32:38.911Z,149.38
2023-04-23T13:35:06.712Z,142.55
2023-04-23T13:37:34.230Z,74.85
2023-04-23T13:40:01.460Z,90.45
2023-04-23T13:42:28.771Z,91.30
2023-04-23T13:44:56.598Z,78.78
2023-04-23T13:47:23.912Z,86.15
2023-04-23T13:49:51.399Z,97.43
2023-04-23T13:52:18.689Z,110.85
2023-04-23T13:54:47.815Z,89.40
2023-04-23T13:57:15.315Z,78.80
2023-04-23T13:59:42.510Z,71.93
2023-04-23T14:02:10.299Z,108.97
2023-04-23T14:04:39.411Z,113.78
2023-04-23T14:07:06.741Z,202.32
2023-04-23T14:09:34.192Z,180.38
2023-04-23T14:12:01.485Z,134.15
2023-04-23T14:14:28.891Z,93.78
2023-04-23T14:16:55.977Z,77.38
2023-04-23T14:19:25.938Z,91.72
2023-04-23T14:21:53.388Z,113.13
2023-04-23T14:24:27.403Z,91.88
2023-04-23T14:26:55.446Z,105.80
2023-04-23T14:29:53.296Z,144.60
2023-04-23T14:32:20.956Z,209.18
2023-04-23T14:34:47.998Z,191.10
2023-04-23T14:37:17.176Z,186.90
2023-04-23T14:39:44.795Z,114.22
2023-04-23T14:42:12.278Z,125.05
2023-04-23T14:44:39.250Z,122.50
2023-04-23T14:47:08.603Z,197.57
2023-04-23T14:49:36.058Z,148.27
2023-04-23T14:52:04.270Z,111.63
2023-04-23T14:54:31.326Z,162.23
2023-04-23T14:56:58.653Z,177.07
2023-04-23T14:59:26.017Z,168.02
2023-04-23T15:01:53.096Z,187.75
2023-04-23T15:04:20.769Z,212.15
2023-04-23T15:06:48.141Z,220.65
2023-04-23T15:09:15.647Z,193.60
2023-04-23T15:11:43.246Z,213.80
2023-04-23T15:14:27.088Z,249.10
2023-04-23T15:16:54.470Z,195.75
2023-04-23T15:19:21.430Z,191.55
2023-04-23T15:21:48.794Z,199.25
2023-04-23T15:24:16.581Z,200.77
2023-04-23T15:26:45.200Z,167.95
2023-04-23T15:29:13.144Z,159.77
2023-04-23T15:31:41.569Z,142.60
2023-04-23T15:34:09.756Z,143.10
2023-04-23T15:36:37.703Z,104.60
2023-04-23T15:39:06.801Z,113.47
2023-04-23T15:41:37.036Z,102.38
2023-04-23T15:44:06.136Z,103.57
2023-04-23T15:46:33.863Z,113.80
2023-04-23T15:49:00.922Z,111.15
2023-04-23T15:51:28.639Z,67.35
2023-04-23T15:53:56.009Z,82.32
2023-04-23T15:56:23.970Z,82.75
2023-04-23T15:58:51.123Z,77.05
2023-04-23T16:01:18.460Z,63.95
2023-04-23T16:03:53.766Z,48.72
2023-04-23T16:06:29.172Z,53.75
2023-04-23T16:08:56.425Z,62.45
2023-04-23T16:11:27.575Z,58.03
2023-04-23T16:13:56.668Z,61.38
2023-04-23T16:16:24.094Z,69.45
2023-04-23T16:18:51.487Z,57.53
2023-04-23T16:21:18.564Z,87.53
2023-04-23T16:23:45.870Z,86.68
2023-04-23T16:26:13.221Z,81.47
2023-04-23T16:28:41.142Z,92.78
2023-04-23T16:31:08.763Z,105.05
2023-04-23T16:33:36.244Z,125.25
2023-04-23T16:36:03.857Z,119.20
2023-04-23T16:38:31.439Z,101.90
2023-04-23T16:40:58.492Z,103.30
2023-04-23T16:43:27.236Z,104.47
2023-04-23T16:45:54.379Z,101.60
2023-04-23T16:48:21.809Z,124.85
2023-04-23T16:50:49.100Z,106.78
2023-04-23T16:53:17.248Z,99.13
2023-04-23T16:55:44.658Z,118.32
2023-04-23T16:58:11.868Z,111.50
2023-04-23T17:00:38.921Z,107.35
2023-04-23T17:03:06.198Z,115.97
2023-04-23T17:05:34.028Z,115.20
2023-04-23T17:08:01.102Z,145.85
2023-04-23T17:10:28.221Z,181.82
2023-04-23T17:12:55.641Z,185.40
2023-04-23T17:15:22.787Z,200.57
2023-04-23T17:17:50.084Z,206.63
2023-04-23T17:20:17.427Z,204.07
2023-04-23T17:22:44.687Z,207.43
2023-04-23T17:25:11.906Z,216.75
2023-04-23T17:27:39.292Z,225.80
2023-04-23T17:30:07.404Z,206.55
2023-04-23T17:32:34.708Z,219.68
2023-04-23T17:35:10.332Z,196.68
2023-04-23T17:37:39.138Z,199.38
2023-04-23T17:40:06.981Z,201.38
2023-04-23T17:42:34.467Z,180.88
2023-04-23T17:45:01.456Z,178.75
2023-04-23T17:47:29.112Z,188.85
2023-04-23T17:49:56.827Z,167.15
2023-04-23T17:52:23.984Z,155.32
2023-04-23T17:54:51.011Z,145.63
2023-04-23T17:57:18.626Z,149.60
2023-04-23T17:59:46.029Z,155.40
2023-04-23T18:02:13.399Z,128.98
2023-04-23T18:04:42.456Z,148.23
2023-04-23T18:07:10.687Z,136.35
2023-04-23T18:09:37.940Z,134.63
2023-04-23T18:12:06.036Z,150.55
2023-04-23T18:14:33.246Z,153.35
2023-04-23T18:17:00.968Z,136.38
2023-04-23T18:19:29.711Z,142.95
2023-04-23T18:22:01.484Z,149.23
2023-04-23T18:24:28.596Z,142.65
2023-04-23T18:26:58.144Z,139.85
2023-04-23T18:29:26.230Z,140.23
2023-04-23T18:31:53.491Z,139.63
2023-04-23T18:34:20.897Z,133.13
2023-04-23T18:36:48.914Z,138.07
2023-04-23T18:39:16.527Z,138.77
2023-04-23T18:41:44.534Z,140.05
2023-04-23T18:44:13.901Z,145.13
2023-04-23T18:46:41.605Z,137.35
2023-04-23T18:49:23.912Z,130.38
2023-04-23T18:51:51.136Z,134.60
2023-04-23T18:54:18.122Z,147.13
2023-04-23T18:56:45.405Z,137.05
2023-04-23T18:59:13.128Z,138.38
2023-04-23T19:01:40.457Z,154.88
2023-04-23T19:04:07.745Z,147.20
2023-04-23T19:06:35.056Z,136.65
2023-04-23T19:09:02.262Z,133.90
2023-04-23T19:11:34.168Z,141.30
2023-04-23T19:14:01.675Z,145.73
2023-04-23T19:16:29.364Z,130.60
2023-04-23T19:18:56.832Z,126.47
2023-04-23T19:21:24.142Z,127.95
2023-04-23T19:23:53.562Z,136.38
2023-04-23T19:26:20.589Z,137.15
2023-04-23T19:28:48.251Z,128.60
2023-04-23T19:31:15.569Z,133.63
2023-04-23T19:33:45.213Z,142.50
2023-04-23T19:36:12.590Z,136.75
2023-04-23T19:38:39.971Z,140.90
2023-04-23T19:41:07.561Z,139.70
2023-04-23T19:43:34.752Z,147.40
2023-04-23T19:46:01.999Z,152.38
2023-04-23T19:48:29.396Z,140.95
2023-04-23T19:50:57.065Z,148.52
2023-04-23T19:53:24.227Z,150.80
2023-04-23T19:55:51.403Z,162.60
2023-04-23T19:58:19.077Z,156.23
2023-04-23T20:00:46.422Z,160.85
2023-04-23T20:03:13.773Z,174.57
2023-04-23T20:05:43.317Z,172.77
2023-04-23T20:08:25.915Z,158.80
2023-04-23T20:10:53.984Z,172.85
2023-04-23T20:13:21.227Z,158.73
2023-04-23T20:15:49.983Z,165.18
2023-04-23T20:18:18.145Z,160.32
2023-04-23T20:20:45.888Z,159.73
2023-04-23T20:23:12.998Z,167.10
2023-04-23T20:25:40.192Z,173.23
2023-04-23T20:28:07.588Z,177.32
2023-04-23T20:30:36.025Z,178.65
2023-04-23T20:33:03.559Z,186.50
2023-04-23T20:35:31.286Z,176.55
2023-04-23T20:37:58.327Z,155.60
2023-04-23T20:40:26.684Z,131.60
2023-04-23T20:42:54.184Z,141.68
2023-04-23T20:45:22.406Z,129.93
2023-04-23T20:47:50.952Z,127.07
2023-04-23T20:50:18.411Z,113.72
2023-04-23T20:52:45.622Z,113.35
2023-04-23T20:55:12.603Z,116.28
2023-04-23T20:57:39.734Z,133.93
2023-04-23T21:00:11.288Z,118.35
2023-04-23T21:02:39.176Z,133.13
2023-04-23T21:05:07.757Z,116.38
2023-04-23T21:07:36.819Z,110.15
2023-04-23T21:10:04.674Z,122.88
2023-04-23T21:12:31.812Z,114.80
2023-04-23T21:14:59.217Z,116.25
2023-04-23T21:17:26.606Z,108.03
2023-04-23T21:19:54.148Z,109.63
2023-04-23T21:22:21.772Z,115.93
2023-04-23T21:24:48.875Z,113.78
2023-04-23T21:27:20.984Z,116.28
2023-04-23T21:29:48.811Z,110.95
2023-04-23T21:32:16.129Z,108.60
2023-04-23T21:34:43.248Z,116.47
2023-04-23T21:37:10.826Z,116.10
2023-04-23T21:39:37.930Z,101.70
2023-04-23T21:42:05.342Z,118.65
2023-04-23T21:44:35.559Z,112.22
2023-04-23T21:47:03.581Z,111.18
2023-04-23T21:49:31.278Z,149.48
2023-04-23T21:52:00.165Z,181.40
2023-04-23T21:54:27.207Z,204.80
2023-04-23T21:56:54.473Z,206.10
2023-04-23T21:59:23.607Z,198.55
2023-04-23T22:01:51.230Z,185.82
2023-04-23T22:04:18.919Z,211.07
2023-04-23T22:06:46.270Z,211.38
2023-04-23T22:09:14.123Z,199.80
2023-04-23T22:11:46.271Z,189.82
2023-04-23T22:14:19.375Z,202.23
2023-04-23T22:16:47.108Z,206.90
2023-04-23T22:19:15.983Z,202.43
2023-04-23T22:21:43.420Z,204.98
2023-04-23T22:24:10.912Z,213.35
2023-04-23T22:26:37.795Z,229.95
2023-04-23T22:29:05.181Z,254.93
2023-04-23T22:31:32.438Z,278.50
2023-04-23T22:33:59.978Z,297.90
2023-04-23T22:36:28.390Z,294.65
2023-04-23T22:38:56.214Z,293.13
2023-04-23T22:41:23.360Z,306.58
2023-04-23T22:43:52.158Z,304.63
2023-04-23T22:46:19.174Z,292.55
2023-04-23T22:48:47.294Z,285.25
2023-04-23T22:51:14.443Z,310.63
2023-04-23T22:53:42.117Z,275.23
2023-04-23T22:56:09.466Z,265.23
2023-04-23T22:58:37.365Z,269.60
2023-04-23T23:01:04.649Z,262.02
2023-04-23T23:03:32.556Z,233.55
2023-04-23T23:06:00.245Z,244.10
2023-04-23T23:08:27.601Z,243.35
2023-04-23T23:10:55.395Z,259.08
2023-04-23T23:13:23.221Z,207.90
2023-04-23T23:15:50.613Z,192.07
2023-04-23T23:18:20.812Z,159.73
2023-04-23T23:20:48.173Z,161.98
2023-04-23T23:23:15.242Z,155.70
2023-04-23T23:25:42.456Z,141.57
2023-04-23T23:28:10.137Z,145.68
2023-04-23T23:30:37.286Z,120.50
2023-04-23T23:33:05.130Z,120.88
2023-04-23T23:35:32.120Z,128.75
2023-04-23T23:37:59.702Z,135.77
2023-04-23T23:40:27.479Z,131.35
2023-04-23T23:42:54.922Z,126.07
2023-04-23T23:45:21.899Z,128.65
2023-04-23T23:47:48.987Z,126.70
2023-04-23T23:50:16.238Z,131.95
2023-04-23T23:52:43.433Z,139.73
2023-04-23T23:55:11.709Z,138.48
2023-04-23T23:57:38.746Z,126.72
